Time;durP1;ratioP1;P1;durP2;ratioP2;P2;SDS_P1;SDS_P2;PMS_P1;PMS_P2;Temp;Humidity;BMP_temperature;BMP_pressure;BME280_temperature;BME280_humidity;BME280_pressure;Samples;Min_cycle;Max_cycle;Signal;HPM_P1;HPM_P2
2021/04/11 00:00:11;;;;;;;10.63;6.13;;;;;;;10.27;89.26;95793.16;5020116;28;20068;-50
2021/04/11 00:02:38;;;;;;;9.68;6.38;;;;;;;10.24;89.41;95790.81;5028731;28;20666;-48
2021/04/11 00:05:12;;;;;;;9.00;6.18;;;;;;;10.38;87.75;95790.22;5025006;28;20061;-48
2021/04/11 00:07:39;;;;;;;10.45;6.60;;;;;;;10.35;89.98;95784.44;5029375;28;20064;-49
2021/04/11 00:10:08;;;;;;;7.82;6.25;;;;;;;10.35;89.15;95792.34;5025837;28;20077;-48
2021/04/11 00:12:36;;;;;;;8.55;6.10;;;;;;;10.30;91.09;95784.13;5024884;28;20138;-47
2021/04/11 00:15:05;;;;;;;10.23;6.43;;;;;;;10.20;90.87;95794.75;5019102;28;20072;-52
2021/04/11 00:17:32;;;;;;;11.30;6.72;;;;;;;10.18;93.13;95788.81;5028005;28;20637;-47
2021/04/11 00:20:00;;;;;;;7.97;6.38;;;;;;;10.06;96.70;95785.63;5025170;28;20069;-48
2021/04/11 00:22:29;;;;;;;7.28;5.97;;;;;;;10.13;93.01;95777.94;5039419;28;20061;-49
2021/04/11 00:24:56;;;;;;;9.77;6.30;;;;;;;10.09;92.89;95779.22;5025918;28;20077;-51
2021/04/11 00:27:24;;;;;;;8.50;6.00;;;;;;;9.96;96.33;95774.41;5027630;28;20079;-49
2021/04/11 00:29:51;;;;;;;9.73;6.13;;;;;;;9.94;97.78;95773.72;5030849;28;24534;-49
2021/04/11 00:32:18;;;;;;;9.20;6.57;;;;;;;9.90;98.23;95762.66;5022750;28;20061;-54
2021/04/11 00:34:46;;;;;;;9.15;6.53;;;;;;;9.87;99.85;95767.44;5027701;28;20668;-50
2021/04/11 00:37:13;;;;;;;10.00;6.38;;;;;;;9.84;96.73;95762.47;5030012;28;20424;-47
2021/04/11 00:39:42;;;;;;;7.63;6.32;;;;;;;9.83;95.85;95763.47;5028282;28;20080;-50
2021/04/11 00:42:13;;;;;;;9.63;5.78;;;;;;;9.82;97.52;95762.63;5026335;28;20701;-51
2021/04/11 00:44:41;;;;;;;10.88;6.45;;;;;;;9.67;97.12;95758.91;5016863;28;20274;-49
2021/04/11 00:47:09;;;;;;;7.90;6.30;;;;;;;9.77;94.96;95761.44;5022866;28;20192;-47
2021/04/11 00:49:39;;;;;;;10.73;6.75;;;;;;;9.76;94.74;95758.00;5029441;28;20072;-48
2021/04/11 00:52:08;;;;;;;7.13;6.10;;;;;;;9.77;94.11;95761.44;5027602;28;20076;-52
2021/04/11 00:54:36;;;;;;;8.93;6.45;;;;;;;9.76;93.60;95747.47;5029896;28;20511;-48
2021/04/11 00:57:06;;;;;;;10.27;6.05;;;;;;;9.77;93.56;95750.91;5026867;28;20528;-47
2021/04/11 00:59:34;;;;;;;7.65;5.93;;;;;;;9.74;93.23;95752.09;5038090;28;20523;-50
2021/04/11 01:02:02;;;;;;;7.10;6.10;;;;;;;9.58;100.00;95749.34;5019953;28;20499;-51
2021/04/11 01:04:30;;;;;;;9.80;6.68;;;;;;;9.57;95.44;95750.34;5026278;28;20076;-51
2021/04/11 01:06:59;;;;;;;7.38;5.97;;;;;;;9.42;100.00;95750.06;5029288;28;20084;-49
2021/04/11 01:09:38;;;;;;;8.85;6.75;;;;;;;9.39;100.00;95745.09;5026293;28;20084;-49
2021/04/11 01:12:10;;;;;;;9.43;6.40;;;;;;;9.31;100.00;95745.06;5029170;28;20064;-52
2021/04/11 01:14:38;;;;;;;8.15;6.20;;;;;;;9.03;100.00;95743.38;5041024;28;20045;-52
2021/04/11 01:17:07;;;;;;;10.00;6.50;;;;;;;8.81;100.00;95746.50;5027939;28;20057;-48
2021/04/11 01:19:37;;;;;;;10.68;6.50;;;;;;;8.70;100.00;95749.34;5025814;28;20065;-48
2021/04/11 01:22:11;;;;;;;10.05;6.75;;;;;;;8.60;100.00;95745.97;5041355;28;20080;-51
2021/04/11 01:24:42;;;;;;;8.40;6.80;;;;;;;8.84;100.00;95748.81;5031225;28;20064;-49
2021/04/11 01:27:10;;;;;;;;;;;;;;;8.90;100.00;95745.56;5033741;28;20521;-48
2021/04/11 01:29:39;;;;;;;8.80;6.65;;;;;;;8.89;100.00;95743.13;5032637;28;19971;-47
2021/04/11 01:32:07;;;;;;;9.82;6.90;;;;;;;8.89;100.00;95743.13;5028638;28;20534;-50
2021/04/11 01:34:35;;;;;;;9.73;6.85;;;;;;;8.57;100.00;95744.47;5027265;28;20751;-51
2021/04/11 01:37:04;;;;;;;7.90;6.55;;;;;;;8.40;100.00;95747.94;5042860;28;20084;-51
2021/04/11 01:39:36;;;;;;;9.20;6.70;;;;;;;8.35;100.00;95755.38;5026085;28;20069;-50
2021/04/11 01:42:06;;;;;;;7.90;6.50;;;;;;;8.38;100.00;95742.81;5029503;28;20152;-49
2021/04/11 01:44:35;;;;;;;11.98;6.90;;;;;;;8.46;100.00;95737.63;5036282;28;20077;-53
2021/04/11 01:47:03;;;;;;;8.38;6.47;;;;;;;8.35;100.00;95737.81;5025909;28;20508;-51
2021/04/11 01:49:31;;;;;;;10.05;6.60;;;;;;;8.43;100.00;95734.47;5028316;28;20057;-52
2021/04/11 01:52:00;;;;;;;10.63;6.40;;;;;;;8.07;100.00;95737.84;5031143;28;20524;-50
2021/04/11 01:54:32;;;;;;;9.60;7.15;;;;;;;8.37;100.00;95727.16;5030928;28;20120;-50
2021/04/11 01:57:06;;;;;;;7.68;6.35;;;;;;;8.42;100.00;95728.38;5024497;28;20064;-50
2021/04/11 01:59:34;;;;;;;8.68;6.40;;;;;;;8.45;100.00;95724.66;5037266;28;20447;-53
2021/04/11 02:02:01;;;;;;;9.95;6.70;;;;;;;8.50;100.00;95725.03;5029016;28;20064;-50
2021/04/11 02:04:29;;;;;;;10.15;6.05;;;;;;;8.52;100.00;95721.25;5037440;28;20065;-54
2021/04/11 02:06:57;;;;;;;7.85;5.57;;;;;;;8.64;100.00;95729.75;5026816;28;20072;-49
2021/04/11 02:09:32;;;;;;;9.02;5.63;;;;;;;8.57;100.00;95723.47;5037177;28;20544;-52
2021/04/11 02:12:01;;;;;;;7.78;5.72;;;;;;;8.26;100.00;95725.59;5042711;28;20069;-50
2021/04/11 02:14:30;;;;;;;8.20;6.03;;;;;;;8.30;100.00;95727.75;5023599;28;20538;-51
2021/04/11 02:16:58;;;;;;;7.45;6.30;;;;;;;8.40;100.00;95721.66;5031209;28;20106;-49
2021/04/11 02:19:28;;;;;;;10.25;6.72;;;;;;;8.21;100.00;95715.50;5033146;28;20069;-52
2021/04/11 02:21:59;;;;;;;8.75;6.45;;;;;;;8.38;100.00;95710.47;5022963;28;20548;-50
2021/04/11 02:24:28;;;;;;;7.50;6.13;;;;;;;8.41;100.00;95707.53;5033063;28;20080;-55
2021/04/11 02:26:55;;;;;;;9.55;5.90;;;;;;;8.38;100.00;95706.03;5026055;28;20069;-52
2021/04/11 02:29:25;;;;;;;7.07;5.93;;;;;;;8.14;100.00;95713.63;5029509;28;20068;-52
2021/04/11 02:31:54;;;;;;;7.40;6.30;;;;;;;7.82;100.00;95715.75;5030338;28;20639;-51
2021/04/11 02:34:23;;;;;;;9.55;6.47;;;;;;;7.94;100.00;95716.34;5033377;28;20080;-51
2021/04/11 02:37:02;;;;;;;8.32;6.90;;;;;;;8.06;100.00;95709.94;5026196;28;20076;-49
2021/04/11 02:39:31;;;;;;;9.23;6.45;;;;;;;8.13;100.00;95709.34;5041767;28;20061;-51
2021/04/11 02:42:01;;;;;;;9.90;6.43;;;;;;;7.97;100.00;95715.25;5012646;28;20056;-50
2021/04/11 02:44:29;;;;;;;7.20;5.90;;;;;;;7.90;100.00;95724.69;5012428;28;20060;-54
2021/04/11 02:46:57;;;;;;;11.50;6.15;;;;;;;7.90;100.00;95729.94;5029500;28;20061;-50
2021/04/11 02:49:25;;;;;;;8.85;7.05;;;;;;;7.87;100.00;95725.78;5016221;28;20065;-48
2021/04/11 02:51:54;;;;;;;9.75;6.05;;;;;;;7.70;100.00;95722.13;5023623;28;20511;-49
2021/04/11 02:54:22;;;;;;;6.30;5.47;;;;;;;7.56;100.00;95722.63;5038027;28;20068;-51
2021/04/11 02:56:50;;;;;;;10.20;6.45;;;;;;;7.82;100.00;95712.28;5013524;28;20061;-50
2021/04/11 02:59:19;;;;;;;8.40;6.38;;;;;;;7.74;100.00;95718.28;5031814;28;20439;-51
2021/04/11 03:01:48;;;;;;;8.68;6.78;;;;;;;7.88;100.00;95719.59;5036402;28;20081;-52
2021/04/11 03:04:18;;;;;;;6.82;6.15;;;;;;;7.93;100.00;95716.50;5031618;28;20072;-52
2021/04/11 03:06:49;;;;;;;9.07;6.20;;;;;;;8.00;100.00;95721.03;5026356;28;20092;-48
2021/04/11 03:09:20;;;;;;;6.97;5.88;;;;;;;8.08;100.00;95715.03;5042876;28;20915;-50
2021/04/11 03:11:50;;;;;;;8.68;6.18;;;;;;;8.12;100.00;95719.03;5026936;28;20060;-54
2021/04/11 03:14:21;;;;;;;8.55;6.18;;;;;;;8.11;100.00;95711.28;5027110;28;20073;-52
2021/04/11 03:16:48;;;;;;;8.25;5.90;;;;;;;8.18;100.00;95717.59;5025000;28;20061;-49
2021/04/11 03:19:20;;;;;;;8.55;5.78;;;;;;;7.97;100.00;95713.44;5031362;28;20065;-54
2021/04/11 03:21:47;;;;;;;;;;;;;;;8.16;100.00;95709.06;5029142;28;20107;-50
2021/04/11 03:24:14;;;;;;;6.82;6.10;;;;;;;8.29;100.00;95697.22;5033079;28;19964;-53
2021/04/11 03:26:45;;;;;;;8.18;6.05;;;;;;;8.26;100.00;95699.31;5012862;28;20071;-53
2021/04/11 03:29:14;;;;;;;;;;;;;;;8.12;100.00;95692.78;5024849;28;20077;-50
2021/04/11 03:31:44;;;;;;;8.40;5.80;;;;;;;7.97;100.00;95702.13;5024319;28;20306;-50
2021/04/11 03:34:14;;;;;;;8.93;6.10;;;;;;;8.01;100.00;95699.03;5028643;28;20084;-50
2021/04/11 03:36:42;;;;;;;9.20;5.65;;;;;;;8.14;100.00;95705.75;5019541;28;20096;-49
2021/04/11 03:39:11;;;;;;;6.30;5.47;;;;;;;7.97;100.00;95712.63;5031254;28;20459;-50
2021/04/11 03:41:39;;;;;;;7.88;5.93;;;;;;;8.07;100.00;95700.25;5025958;28;20073;-50
2021/04/11 03:44:08;;;;;;;7.07;5.97;;;;;;;7.98;100.00;95699.38;5026124;28;20071;-53
2021/04/11 03:46:40;;;;;;;7.10;5.72;;;;;;;7.64;100.00;95699.13;5021141;28;20079;-50
2021/04/11 03:49:11;;;;;;;6.15;5.40;;;;;;;7.55;100.00;95697.34;5023032;28;20084;-53
2021/04/11 03:51:42;;;;;;;7.90;5.88;;;;;;;7.89;100.00;95696.78;5021507;28;20069;-53
2021/04/11 03:54:13;;;;;;;6.68;5.45;;;;;;;7.97;100.00;95699.50;5036130;28;20426;-53
2021/04/11 03:56:42;;;;;;;7.47;5.35;;;;;;;8.05;100.00;95697.78;5026642;28;20495;-51
2021/04/11 03:59:14;;;;;;;9.50;5.50;;;;;;;7.81;100.00;95698.34;5029031;28;20068;-55
2021/04/11 04:01:44;;;;;;;8.10;5.40;;;;;;;7.93;100.00;95703.38;5031979;28;20071;-55
2021/04/11 04:04:16;;;;;;;8.88;5.55;;;;;;;7.96;100.00;95697.84;5025616;28;20069;-52
2021/04/11 04:07:09;;;;;;;6.22;5.10;;;;;;;7.83;100.00;95692.94;5017051;28;20095;-54
2021/04/11 04:09:37;;;;;;;7.78;5.70;;;;;;;7.74;100.00;95699.06;5029233;28;20080;-51
2021/04/11 04:12:27;;;;;;;6.65;5.93;;;;;;;7.66;100.00;95705.03;5029306;28;20068;-54
2021/04/11 04:15:06;;;;;;;7.50;5.45;;;;;;;7.66;100.00;95705.03;5004203;28;20065;-50
2021/04/11 04:17:41;;;;;;;8.02;5.75;;;;;;;7.79;100.00;95700.28;5028997;28;20057;-48
2021/04/11 04:20:12;;;;;;;6.70;5.45;;;;;;;7.86;100.00;95703.16;5016738;28;21871;-54
2021/04/11 04:23:01;;;;;;;7.72;5.82;;;;;;;7.74;100.00;95702.53;5005525;28;20116;-51
2021/04/11 04:25:42;;;;;;;7.13;5.50;;;;;;;7.67;100.00;95698.81;5027194;28;20539;-49
2021/04/11 04:28:20;;;;;;;7.03;5.35;;;;;;;7.69;100.00;95710.00;5029878;28;20214;-50
2021/04/11 04:30:53;;;;;;;6.57;5.63;;;;;;;7.55;100.00;95710.47;5025551;28;20084;-49
2021/04/11 04:33:26;;;;;;;6.82;4.97;;;;;;;7.28;100.00;95714.69;5027968;28;20084;-49
2021/04/11 04:36:01;;;;;;;5.85;5.20;;;;;;;7.43;100.00;95714.25;5021985;28;20531;-51
2021/04/11 04:38:34;;;;;;;5.35;4.82;;;;;;;7.22;100.00;95722.31;5034153;28;20476;-51
2021/04/11 04:41:10;;;;;;;5.90;5.30;;;;;;;7.18;100.00;95713.91;5023863;28;20077;-50
2021/04/11 04:43:47;;;;;;;6.00;4.60;;;;;;;7.42;100.00;95723.91;5031049;28;20072;-49
2021/04/11 04:46:17;;;;;;;6.38;4.72;;;;;;;7.49;100.00;95716.28;5027871;28;20918;-50
2021/04/11 04:48:46;;;;;;;;;;;;;;;7.59;100.00;95712.66;5003326;28;720820;-51
2021/04/11 04:51:16;;;;;;;5.78;4.57;;;;;;;7.68;100.00;95718.03;5031316;28;20402;-54
2021/04/11 04:53:47;;;;;;;5.32;4.82;;;;;;;7.70;100.00;95711.63;5038918;28;20091;-48
2021/04/11 04:56:18;;;;;;;6.50;4.95;;;;;;;7.69;100.00;95719.66;5026272;28;20057;-48
2021/04/11 04:58:51;;;;;;;5.10;4.60;;;;;;;7.67;100.00;95718.97;5035044;28;20061;-48
2021/04/11 05:01:22;;;;;;;6.07;4.72;;;;;;;7.67;100.00;95729.47;5027134;28;20087;-52
2021/04/11 05:03:50;;;;;;;;;;;;;;;7.70;100.00;95727.38;5029532;28;20092;-47
2021/04/11 05:06:19;;;;;;;6.07;4.90;;;;;;;7.63;100.00;95717.63;5035498;28;19987;-47
2021/04/11 05:08:52;;;;;;;8.57;5.15;;;;;;;7.60;100.00;95723.97;5025296;28;20069;-49
2021/04/11 05:11:24;;;;;;;8.43;5.00;;;;;;;7.94;100.00;95726.84;5028800;28;20475;-48
2021/04/11 05:13:57;;;;;;;4.80;4.28;;;;;;;8.03;100.00;95725.16;5035743;28;20077;-48
2021/04/11 05:16:27;;;;;;;6.57;4.88;;;;;;;7.67;100.00;95730.28;5033875;28;20080;-50
2021/04/11 05:19:21;;;;;;;7.90;5.03;;;;;;;7.80;100.00;95719.47;5026646;28;20038;-51
2021/04/11 05:21:52;;;;;;;7.80;4.65;;;;;;;8.14;100.00;95722.31;5031078;28;20084;-48
2021/04/11 05:24:23;;;;;;;5.00;4.50;;;;;;;8.52;100.00;95720.44;5030847;28;20085;-48
2021/04/11 05:26:54;;;;;;;6.10;4.88;;;;;;;8.91;100.00;95713.06;5026629;28;20071;-51
2021/04/11 05:29:21;;;;;;;;;;;;;;;9.01;100.00;95710.31;5027798;28;20057;-49
2021/04/11 05:31:51;;;;;;;6.68;4.88;;;;;;;9.08;100.00;95711.34;5033521;28;19960;-51
2021/04/11 05:34:19;;;;;;;6.70;4.88;;;;;;;8.85;100.00;95716.31;5027672;28;20069;-49
2021/04/11 05:36:56;;;;;;;5.57;4.13;;;;;;;9.17;100.00;95717.53;5034395;28;20108;-51
2021/04/11 05:39:36;;;;;;;5.63;4.30;;;;;;;9.77;100.00;95711.41;5038631;28;20084;-51
2021/04/11 05:42:08;;;;;;;7.53;4.93;;;;;;;9.98;98.41;95714.50;5023264;28;20076;-50
2021/04/11 05:44:40;;;;;;;6.93;4.38;;;;;;;9.86;100.00;95718.38;5027746;28;20069;-51
2021/04/11 05:47:12;;;;;;;6.25;4.53;;;;;;;9.99;100.00;95724.03;5035423;28;20061;-48
2021/04/11 05:49:44;;;;;;;7.40;4.80;;;;;;;9.89;100.00;95725.97;5026571;28;20561;-47
2021/04/11 05:52:15;;;;;;;5.40;4.50;;;;;;;10.27;98.48;95724.66;5029147;28;20098;-50
2021/04/11 05:54:47;;;;;;;6.78;4.25;;;;;;;10.22;94.75;95725.09;5033136;28;20084;-54
2021/04/11 05:57:18;;;;;;;5.40;4.20;;;;;;;10.13;94.89;95726.06;5032125;28;20491;-47
2021/04/11 05:59:49;;;;;;;6.50;4.75;;;;;;;9.98;100.00;95722.41;5023414;28;20179;-49
2021/04/11 06:02:19;;;;;;;;;;;;;;;10.18;100.00;95720.31;5039879;28;20072;-51
2021/04/11 06:04:50;;;;;;;5.35;4.13;;;;;;;10.27;98.48;95714.09;5028034;28;19921;-53
2021/04/11 06:07:18;;;;;;;;;;;;;;;10.24;99.69;95717.03;5036897;28;20061;-48
2021/04/11 06:09:47;;;;;;;5.07;4.22;;;;;;;10.08;100.00;95723.09;5035688;28;19956;-52
2021/04/11 06:12:20;;;;;;;8.45;4.90;;;;;;;9.90;100.00;95715.25;5022366;28;20081;-50
2021/04/11 06:14:53;;;;;;;5.13;4.30;;;;;;;9.93;100.00;95719.41;5033224;28;20067;-53
2021/04/11 06:17:21;;;;;;;6.15;4.60;;;;;;;10.74;100.00;95715.34;5045731;28;20075;-52
2021/04/11 06:19:49;;;;;;;6.10;4.35;;;;;;;11.09;95.52;95714.19;5026204;28;20071;-49
2021/04/11 06:22:21;;;;;;;7.78;4.53;;;;;;;11.20;91.72;95708.56;5034435;28;20061;-51
2021/04/11 06:24:54;;;;;;;4.55;4.15;;;;;;;11.79;85.29;95711.72;5021805;28;20077;-48
2021/04/11 06:27:36;;;;;;;5.68;4.05;;;;;;;11.91;81.90;95714.88;5022964;28;20082;-54
2021/04/11 06:30:07;;;;;;;4.63;4.10;;;;;;;12.10;80.21;95716.25;5030491;28;20080;-48
2021/04/11 06:32:38;;;;;;;6.00;4.20;;;;;;;12.19;81.94;95724.97;5039467;28;20065;-51
2021/04/11 06:35:09;;;;;;;6.18;4.13;;;;;;;12.73;77.51;95711.75;5026954;28;20080;-51
2021/04/11 06:37:37;;;;;;;4.72;3.88;;;;;;;13.43;73.14;95710.72;5032210;28;20060;-51
2021/04/11 06:40:11;;;;;;;4.50;3.90;;;;;;;13.72;69.81;95699.31;5025697;28;20076;-51
2021/04/11 06:42:48;;;;;;;5.20;4.70;;;;;;;13.77;67.60;95699.59;5030614;28;20076;-52
2021/04/11 06:45:20;;;;;;;8.77;5.57;;;;;;;13.87;67.69;95697.50;5024860;28;20384;-50
2021/04/11 06:48:36;;;;;;;7.55;6.47;;;;;;;14.31;63.64;95693.13;5022113;28;20072;-49
2021/04/11 06:51:36;;;;;;;7.80;6.90;;;;;;;14.21;60.88;95696.91;5031093;28;20065;-52
2021/04/11 06:54:24;;;;;;;8.10;7.30;;;;;;;14.16;60.04;95696.63;5032334;28;20076;-55
2021/04/11 06:57:00;;;;;;;11.60;9.82;;;;;;;14.71;59.67;95679.28;5024393;28;20053;-49
2021/04/11 06:59:46;;;;;;;12.50;9.20;;;;;;;14.90;56.33;95675.19;5030539;28;20081;-54
2021/04/11 07:02:52;;;;;;;7.70;6.07;;;;;;;14.53;53.83;95678.09;5023628;28;20065;-52
2021/04/11 07:05:36;;;;;;;7.28;5.97;;;;;;;14.59;51.76;95672.88;5026731;28;20061;-49
2021/04/11 07:08:31;;;;;;;7.55;6.68;;;;;;;14.73;56.64;95668.50;5023329;28;20076;-52
2021/04/11 07:11:37;;;;;;;12.18;6.45;;;;;;;15.06;54.94;95663.47;5024172;28;20093;-53
2021/04/11 07:14:49;;;;;;;9.82;6.22;;;;;;;15.41;53.71;95666.19;5041422;28;20083;-56
2021/04/11 07:17:27;;;;;;;9.90;6.07;;;;;;;15.44;50.89;95663.13;4952171;28;20083;-50
2021/04/11 07:20:29;;;;;;;6.90;5.90;;;;;;;15.33;50.79;95661.84;5028389;28;20084;-51
2021/04/11 07:23:23;;;;;;;7.55;5.15;;;;;;;15.83;49.57;95670.56;5018701;28;20061;-53
2021/04/11 07:26:23;;;;;;;8.43;5.75;;;;;;;15.48;51.45;95671.53;5025823;28;20153;-49
2021/04/11 07:28:57;;;;;;;5.60;4.97;;;;;;;15.82;48.25;95666.25;5027941;28;20079;-52
2021/04/11 07:31:38;;;;;;;13.07;5.32;;;;;;;16.24;47.02;95664.41;5027883;28;20550;-52
2021/04/11 07:34:23;;;;;;;7.68;4.75;;;;;;;15.72;47.94;95671.09;5022613;28;20066;-50
2021/04/11 07:37:14;;;;;;;5.22;4.65;;;;;;;16.03;47.42;95667.97;5035613;28;20077;-52
2021/04/11 07:39:46;;;;;;;7.32;4.65;;;;;;;16.68;47.69;95665.72;5031648;28;20088;-52
2021/04/11 07:42:47;;;;;;;5.25;4.50;;;;;;;17.15;45.57;95657.81;5017046;28;20380;-50
2021/04/11 07:45:36;;;;;;;5.03;4.63;;;;;;;15.88;47.76;95669.97;5020972;28;21543;-51
2021/04/11 07:48:16;;;;;;;6.93;4.60;;;;;;;16.05;47.62;95665.97;5018652;28;20061;-50
2021/04/11 07:50:55;;;;;;;7.32;5.25;;;;;;;16.37;46.97;95664.44;5022148;28;20073;-49
2021/04/11 07:53:44;;;;;;;6.40;4.90;;;;;;;16.30;48.46;95666.25;5014606;28;20602;-56
2021/04/11 07:56:21;;;;;;;7.75;5.85;;;;;;;16.19;49.21;95669.50;5018434;28;20075;-48
2021/04/11 07:59:06;;;;;;;9.70;6.80;;;;;;;17.16;46.25;95665.59;5018952;28;20065;-53
2021/04/11 08:01:47;;;;;;;10.15;7.43;;;;;;;17.37;45.21;95669.06;5020199;28;20079;-54
2021/04/11 08:04:32;;;;;;;10.55;7.78;;;;;;;18.53;42.76;95668.34;5034451;28;20052;-53
2021/04/11 08:07:11;;;;;;;22.17;5.95;;;;;;;17.92;43.13;95670.44;5019680;28;20092;-54
2021/04/11 08:09:48;;;;;;;8.30;4.88;;;;;;;16.56;46.22;95675.34;5016463;28;20076;-52
2021/04/11 08:12:37;;;;;;;6.97;5.22;;;;;;;16.35;47.97;95685.09;5035987;28;20085;-51
2021/04/11 08:15:14;;;;;;;6.30;4.18;;;;;;;16.86;44.64;95673.16;5022791;28;20069;-51
2021/04/11 08:17:58;;;;;;;4.72;3.60;;;;;;;17.38;43.28;95668.03;5021788;28;20064;-54
2021/04/11 08:20:38;;;;;;;5.72;4.45;;;;;;;17.96;41.88;95673.50;5030857;28;20088;-51
2021/04/11 08:23:42;;;;;;;6.22;4.07;;;;;;;17.62;45.93;95674.56;5034303;28;20079;-53
2021/04/11 08:26:27;;;;;;;5.45;4.63;;;;;;;17.47;45.52;95678.28;5020360;28;20069;-53
2021/04/11 08:29:14;;;;;;;5.38;4.10;;;;;;;17.78;46.46;95680.31;5031577;28;20098;-55
2021/04/11 08:32:15;;;;;;;6.38;4.40;;;;;;;17.91;47.12;95676.00;5019732;28;20064;-47
2021/04/11 08:35:17;;;;;;;5.55;4.78;;;;;;;18.20;47.58;95678.16;5029214;28;20184;-54
2021/04/11 08:37:54;;;;;;;6.00;4.43;;;;;;;18.23;46.76;95677.72;5027046;28;20065;-52
2021/04/11 08:40:30;;;;;;;5.50;4.55;;;;;;;18.61;45.86;95671.56;5032124;28;20073;-53
2021/04/11 08:43:11;;;;;;;5.25;4.50;;;;;;;18.84;45.12;95665.72;5024267;28;20082;-54
2021/04/11 08:45:47;;;;;;;6.88;4.60;;;;;;;19.09;43.80;95662.25;5017623;28;20073;-55
2021/04/11 08:48:30;;;;;;;5.85;5.25;;;;;;;19.15;42.67;95664.06;5021231;28;20440;-56
2021/04/11 08:51:01;;;;;;;5.18;4.20;;;;;;;18.32;44.38;95662.28;5018128;28;20084;-55
2021/04/11 08:53:32;;;;;;;7.80;4.60;;;;;;;19.36;42.30;95655.66;5026595;28;20061;-53
2021/04/11 08:56:05;;;;;;;7.22;4.25;;;;;;;19.56;41.32;95646.63;5023245;28;20590;-54
2021/04/11 08:58:36;;;;;;;5.80;4.10;;;;;;;19.10;41.75;95648.69;5029858;28;20068;-52
2021/04/11 09:01:11;;;;;;;6.50;4.10;;;;;;;19.82;41.48;95645.56;5021887;28;20073;-49
2021/04/11 09:04:00;;;;;;;4.95;3.88;;;;;;;19.91;39.26;95645.06;5024632;28;20087;-52
2021/04/11 09:06:39;;;;;;;6.03;4.03;;;;;;;19.61;40.31;95642.28;5017702;28;20341;-51
2021/04/11 09:09:26;;;;;;;5.88;4.03;;;;;;;19.89;39.22;95641.81;5029141;28;20565;-55
2021/04/11 09:12:00;;;;;;;3.95;3.53;;;;;;;19.83;38.34;95637.34;5020387;28;20065;-55
2021/04/11 09:14:44;;;;;;;4.15;3.50;;;;;;;19.79;38.69;95638.00;5031625;28;20057;-52
2021/04/11 09:17:38;;;;;;;4.63;3.50;;;;;;;20.34;37.80;95635.28;5031148;28;20443;-56
2021/04/11 09:20:12;;;;;;;4.60;3.42;;;;;;;20.53;37.01;95642.25;5022248;28;20073;-53
2021/04/11 09:23:05;;;;;;;4.53;3.83;;;;;;;20.21;37.91;95646.97;5014095;28;20246;-55
2021/04/11 09:25:34;;;;;;;4.95;4.45;;;;;;;20.56;38.04;95638.31;5022092;28;20080;-55
2021/04/11 09:28:21;;;;;;;5.28;3.63;;;;;;;20.49;37.71;95643.72;5016499;28;20085;-50
2021/04/11 09:31:12;;;;;;;3.47;2.80;;;;;;;19.47;37.45;95639.94;5025297;28;20088;-52
2021/04/11 09:33:52;;;;;;;;;;;;;;;20.26;36.17;95646.28;5024771;28;20094;-49
2021/04/11 09:36:24;;;;;;;2.67;2.20;;;;;;;20.17;36.13;95647.66;5032880;28;19965;-52
2021/04/11 09:39:28;;;;;;;3.70;2.60;;;;;;;20.32;37.18;95640.84;5025645;28;20065;-51
2021/04/11 09:42:13;;;;;;;3.45;2.90;;;;;;;20.42;35.87;95639.50;5022349;28;20080;-52
2021/04/11 09:45:13;;;;;;;3.22;2.72;;;;;;;19.82;36.27;95649.09;5021018;28;20065;-51
2021/04/11 09:47:51;;;;;;;3.15;2.60;;;;;;;20.85;34.98;95639.31;4995652;28;20064;-53
2021/04/11 09:50:27;;;;;;;5.07;2.35;;;;;;;21.42;34.68;95633.50;5033614;28;20467;-50
2021/04/11 09:53:21;;;;;;;4.72;2.30;;;;;;;19.94;34.68;95648.34;5017883;28;20473;-53
2021/04/11 09:55:58;;;;;;;3.95;2.08;;;;;;;20.30;34.44;95637.59;5028356;28;20457;-51
2021/04/11 09:58:53;;;;;;;2.85;2.05;;;;;;;20.92;34.83;95628.50;5031395;28;20065;-56
2021/04/11 10:01:27;;;;;;;2.45;1.92;;;;;;;20.78;34.74;95631.38;5027909;28;20065;-50
2021/04/11 10:04:09;;;;;;;4.90;3.03;;;;;;;20.51;34.20;95633.66;5018343;28;20087;-52
2021/04/11 10:07:12;;;;;;;3.80;2.95;;;;;;;20.41;35.13;95636.03;5031551;28;20480;-52
2021/04/11 10:09:48;;;;;;;3.70;2.72;;;;;;;21.15;34.41;95625.88;5014243;28;20419;-50
2021/04/11 10:12:46;;;;;;;3.03;2.50;;;;;;;20.54;34.06;95637.72;5021269;28;20515;-56
2021/04/11 10:15:18;;;;;;;3.97;2.50;;;;;;;21.32;33.78;95626.00;5017277;28;20459;-52
2021/04/11 10:18:24;;;;;;;4.10;2.30;;;;;;;21.58;32.87;95621.28;5041629;28;20072;-54
2021/04/11 10:20:57;;;;;;;2.65;2.20;;;;;;;21.56;33.13;95622.31;5020786;28;20077;-54
2021/04/11 10:23:35;;;;;;;4.13;2.35;;;;;;;21.37;33.59;95620.81;5022424;28;20073;-52
2021/04/11 10:26:05;;;;;;;4.25;2.47;;;;;;;21.78;33.35;95621.69;5026274;28;20076;-52
2021/04/11 10:28:37;;;;;;;3.60;2.40;;;;;;;21.28;32.93;95617.63;5026029;28;20142;-54
2021/04/11 10:31:27;;;;;;;3.53;2.20;;;;;;;20.95;34.06;95612.78;5024690;28;20457;-50
2021/04/11 10:34:04;;;;;;;3.50;2.60;;;;;;;21.06;33.41;95609.31;5018213;28;20092;-52
2021/04/11 10:36:38;;;;;;;5.90;2.38;;;;;;;21.52;33.28;95607.72;5031635;28;20508;-51
2021/04/11 10:39:11;;;;;;;3.38;2.60;;;;;;;22.05;32.33;95605.88;5026587;28;20064;-51
2021/04/11 10:41:50;;;;;;;2.60;2.40;;;;;;;22.05;33.03;95604.00;5025593;28;20566;-52
2021/04/11 10:45:03;;;;;;;2.42;2.00;;;;;;;20.99;33.23;95592.53;5029874;28;20093;-47
2021/04/11 10:47:47;;;;;;;4.10;2.28;;;;;;;21.57;33.80;95588.25;5028046;28;20060;-54
2021/04/11 10:50:19;;;;;;;3.20;2.10;;;;;;;21.10;33.47;95590.91;5025122;28;20096;-50
2021/04/11 10:53:13;;;;;;;4.35;2.45;;;;;;;21.73;32.97;95590.22;5025988;28;20072;-53
2021/04/11 10:55:49;;;;;;;3.10;2.45;;;;;;;21.72;33.37;95591.28;5024603;28;20061;-48
2021/04/11 10:58:54;;;;;;;3.92;2.55;;;;;;;21.49;33.82;95592.09;5037570;28;20068;-51
2021/04/11 11:01:45;;;;;;;5.45;2.25;;;;;;;21.71;33.28;95589.66;5017324;28;20065;-56
2021/04/11 11:04:54;;;;;;;3.80;2.20;;;;;;;21.59;35.32;95582.66;5029255;28;20075;-56
2021/04/11 11:07:41;;;;;;;6.47;2.45;;;;;;;21.37;34.10;95585.09;5016715;28;20092;-54
2021/04/11 11:10:15;;;;;;;6.15;2.50;;;;;;;20.92;33.85;95591.00;5033058;28;20087;-47
2021/04/11 11:12:57;;;;;;;2.83;2.33;;;;;;;20.57;35.25;95592.53;5024814;28;20080;-54
2021/04/11 11:15:55;;;;;;;5.07;2.58;;;;;;;21.06;34.21;95595.91;5026326;28;20399;-51
2021/04/11 11:19:01;;;;;;;3.03;2.45;;;;;;;21.43;33.85;95587.66;5032334;28;20478;-55
2021/04/11 11:21:45;;;;;;;3.65;2.72;;;;;;;21.87;33.54;95587.28;5018846;28;21049;-53
2021/04/11 11:24:21;;;;;;;2.95;2.30;;;;;;;21.30;33.76;95587.88;5033646;28;20116;-51
2021/04/11 11:27:18;;;;;;;2.78;2.33;;;;;;;21.61;33.44;95583.22;5016634;28;20091;-48
2021/04/11 11:30:11;;;;;;;4.82;2.80;;;;;;;21.47;33.69;95586.16;5020212;28;20702;-57
2021/04/11 11:32:49;;;;;;;3.17;2.53;;;;;;;21.50;33.95;95577.63;5020685;28;20065;-54
2021/04/11 11:35:17;;;;;;;3.97;2.50;;;;;;;22.48;32.66;95575.88;5033947;28;20075;-55
2021/04/11 11:37:52;;;;;;;3.75;2.47;;;;;;;22.59;31.84;95576.88;5021937;28;20073;-58
2021/04/11 11:40:27;;;;;;;3.15;2.60;;;;;;;22.49;31.93;95574.00;5037215;28;20106;-54
2021/04/11 11:43:04;;;;;;;3.83;2.70;;;;;;;22.31;32.58;95575.03;5024280;28;20079;-52
2021/04/11 11:45:39;;;;;;;5.25;2.80;;;;;;;21.56;33.87;95571.31;5027736;28;20082;-57
2021/04/11 11:48:27;;;;;;;4.57;2.65;;;;;;;22.62;32.19;95567.53;5019460;28;20069;-56
2021/04/11 11:50:59;;;;;;;3.33;2.42;;;;;;;23.05;32.17;95566.09;5034633;28;20535;-56
2021/04/11 11:53:35;;;;;;;4.68;2.47;;;;;;;22.46;32.02;95571.78;5022099;28;20537;-56
2021/04/11 11:56:10;;;;;;;3.40;2.42;;;;;;;23.04;30.93;95575.22;5031563;28;20061;-54
2021/04/11 11:58:41;;;;;;;3.75;2.10;;;;;;;24.05;29.92;95570.47;5032353;28;20069;-55
2021/04/11 12:01:18;;;;;;;2.67;2.40;;;;;;;22.34;32.16;95563.00;5020801;28;20061;-53
2021/04/11 12:03:45;;;;;;;2.55;2.20;;;;;;;22.74;31.97;95565.56;5014406;28;20072;-53
2021/04/11 12:06:17;;;;;;;2.95;2.20;;;;;;;23.92;30.58;95568.19;5028204;28;20080;-56
2021/04/11 12:08:51;;;;;;;4.03;2.20;;;;;;;23.87;31.73;95571.59;5023263;28;20071;-58
2021/04/11 12:11:25;;;;;;;3.20;2.10;;;;;;;22.44;31.63;95568.56;5020680;28;20074;-57
2021/04/11 12:13:57;;;;;;;2.92;2.17;;;;;;;22.79;31.68;95568.34;5030150;28;20099;-56
2021/04/11 12:16:26;;;;;;;3.63;2.00;;;;;;;23.00;31.12;95568.72;5019431;28;20069;-52